Time;durP1;ratioP1;P1;durP2;ratioP2;P2;SDS_P1;SDS_P2;PMS_P1;PMS_P2;Temp;Humidity;BMP_temperature;BMP_pressure;BME280_temperature;BME280_humidity;BME280_pressure;Samples;Min_cycle;Max_cycle;Signal;HPM_P1;HPM_P2
2023/10/26 00:01:31;;;;;;;1.65;1.15;;;22.90;44.80;;;;;;5014009;28;20294;-42
2023/10/26 00:03:57;;;;;;;1.92;1.20;;;22.90;44.80;;;;;;5011840;28;20222;-41
2023/10/26 00:06:24;;;;;;;1.67;1.17;;;22.90;44.80;;;;;;5009784;28;20223;-41
2023/10/26 00:08:50;;;;;;;1.42;1.30;;;22.80;44.70;;;;;;5012965;28;20285;-42
2023/10/26 00:11:17;;;;;;;1.30;1.20;;;22.90;44.70;;;;;;5004080;28;20207;-42
2023/10/26 00:13:43;;;;;;;2.15;1.30;;;22.90;44.70;;;;;;5012395;28;20787;-42
2023/10/26 00:16:10;;;;;;;1.25;1.13;;;22.90;44.70;;;;;;5013534;28;20594;-42
2023/10/26 00:18:36;;;;;;;1.65;1.00;;;22.90;44.70;;;;;;5014274;28;20586;-42
2023/10/26 00:21:02;;;;;;;1.50;1.10;;;22.90;44.70;;;;;;5014772;28;20559;-42
2023/10/26 00:23:29;;;;;;;1.25;1.20;;;22.90;44.70;;;;;;5011726;28;20543;-42
2023/10/26 00:25:55;;;;;;;1.60;1.50;;;22.90;44.70;;;;;;5015264;28;20207;-42
2023/10/26 00:28:22;;;;;;;2.45;1.50;;;22.90;44.70;;;;;;5009612;28;20211;-42
2023/10/26 00:30:48;;;;;;;1.20;1.10;;;22.90;44.70;;;;;;5012833;28;20285;-42
2023/10/26 00:33:15;;;;;;;1.05;0.95;;;22.90;44.70;;;;;;5012780;28;20202;-41
2023/10/26 00:35:41;;;;;;;2.97;1.52;;;22.80;44.60;;;;;;5014344;28;20291;-42
2023/10/26 00:38:08;;;;;;;2.13;1.55;;;22.80;44.60;;;;;;5013756;28;20225;-42
2023/10/26 00:40:34;;;;;;;1.35;1.25;;;22.90;44.70;;;;;;5009757;28;20204;-41
2023/10/26 00:43:00;;;;;;;1.92;1.20;;;22.90;44.70;;;;;;5012795;28;20194;-42
2023/10/26 00:45:27;;;;;;;2.08;1.20;;;22.80;44.60;;;;;;5007634;28;20224;-42
2023/10/26 00:47:53;;;;;;;1.83;1.27;;;22.80;44.60;;;;;;5009768;28;20253;-42
2023/10/26 00:50:20;;;;;;;3.55;1.40;;;22.90;44.80;;;;;;5009610;28;20217;-42
2023/10/26 00:52:46;;;;;;;1.42;1.30;;;22.80;44.60;;;;;;5014023;28;20211;-41
2023/10/26 00:55:13;;;;;;;1.25;1.10;;;22.80;44.60;;;;;;5013906;28;20223;-41
2023/10/26 00:57:39;;;;;;;1.30;1.20;;;22.90;44.70;;;;;;5012156;28;20199;-41
2023/10/26 01:00:07;;;;;;;1.90;1.08;;;22.90;44.60;;;;;;5010628;28;20287;-41
2023/10/26 01:02:34;;;;;;;1.45;1.20;;;22.80;44.50;;;;;;5014141;28;20672;-42
2023/10/26 01:05:00;;;;;;;1.15;1.05;;;22.80;44.50;;;;;;5009910;28;20714;-41
2023/10/26 01:07:27;;;;;;;1.05;1.02;;;22.90;44.60;;;;;;5012868;28;20623;-42
2023/10/26 01:09:53;;;;;;;2.90;1.15;;;22.80;44.50;;;;;;5013029;28;20563;-42
2023/10/26 01:12:19;;;;;;;1.20;1.10;;;22.80;44.50;;;;;;5012811;28;20289;-41
2023/10/26 01:14:46;;;;;;;1.75;1.20;;;22.90;44.60;;;;;;5006427;28;20297;-41
2023/10/26 01:17:12;;;;;;;1.10;1.00;;;22.90;44.50;;;;;;5012895;28;20218;-42
2023/10/26 01:19:39;;;;;;;1.23;1.13;;;22.90;44.50;;;;;;5011426;28;20290;-41
2023/10/26 01:22:05;;;;;;;1.05;1.02;;;22.90;44.50;;;;;;5009221;28;20199;-41
2023/10/26 01:24:32;;;;;;;1.83;1.00;;;22.90;44.50;;;;;;5012044;28;20314;-43
2023/10/26 01:26:58;;;;;;;2.17;1.00;;;22.90;44.50;;;;;;5013746;28;20233;-41
2023/10/26 01:29:25;;;;;;;1.92;1.10;;;22.90;44.50;;;;;;5011052;28;20218;-41
2023/10/26 01:31:51;;;;;;;1.35;1.25;;;22.90;45.20;;;;;;5008021;28;20638;-41
2023/10/26 01:34:18;;;;;;;1.25;1.15;;;22.90;44.50;;;;;;5012739;28;20703;-41
2023/10/26 01:36:44;;;;;;;1.25;1.15;;;22.90;44.50;;;;;;5014990;28;20213;-41
2023/10/26 01:39:10;;;;;;;1.30;0.85;;;22.90;44.50;;;;;;5008632;28;20326;-42
2023/10/26 01:41:37;;;;;;;0.98;0.98;;;22.90;44.50;;;;;;5010738;28;20759;-42
2023/10/26 01:44:03;;;;;;;1.20;1.10;;;22.90;44.50;;;;;;5011665;28;20602;-42
2023/10/26 01:46:30;;;;;;;2.25;1.10;;;22.90;44.50;;;;;;5012503;28;20207;-41
2023/10/26 01:48:56;;;;;;;1.98;0.90;;;22.90;44.50;;;;;;5007271;28;20203;-41
2023/10/26 01:51:23;;;;;;;2.30;1.27;;;22.90;44.50;;;;;;5012782;28;20199;-41
2023/10/26 01:53:49;;;;;;;0.98;0.98;;;22.90;44.50;;;;;;5013350;28;20238;-42
2023/10/26 01:56:15;;;;;;;1.35;1.25;;;22.90;44.50;;;;;;5011997;28;20207;-41
2023/10/26 01:58:42;;;;;;;1.98;1.00;;;22.90;44.50;;;;;;5007915;28;20298;-41
2023/10/26 02:01:08;;;;;;;2.15;1.20;;;22.90;44.50;;;;;;5011104;28;20313;-41
2023/10/26 02:03:35;;;;;;;1.10;0.93;;;22.90;44.50;;;;;;5012855;28;20229;-42
2023/10/26 02:06:01;;;;;;;1.13;1.00;;;22.90;44.50;;;;;;5010854;28;20630;-41
2023/10/26 02:08:28;;;;;;;1.58;1.13;;;22.90;44.50;;;;;;5010813;28;20235;-42
2023/10/26 02:10:54;;;;;;;2.28;1.10;;;22.90;44.50;;;;;;5012107;28;20221;-42
2023/10/26 02:13:21;;;;;;;1.17;0.95;;;22.90;44.50;;;;;;5012036;28;20310;-41
2023/10/26 02:15:47;;;;;;;1.05;0.90;;;22.90;44.50;;;;;;5008220;28;20195;-42
2023/10/26 02:18:14;;;;;;;1.15;0.95;;;22.90;44.50;;;;;;5009967;28;20204;-42
2023/10/26 02:20:40;;;;;;;1.75;1.00;;;22.90;44.50;;;;;;4979313;28;20203;-42
2023/10/26 02:23:06;;;;;;;1.20;1.08;;;22.90;44.50;;;;;;5008156;28;20700;-41
2023/10/26 02:25:33;;;;;;;1.67;1.00;;;22.90;44.50;;;;;;5012260;28;20210;-41
2023/10/26 02:27:59;;;;;;;1.25;1.15;;;22.90;44.50;;;;;;5011150;28;20710;-41
2023/10/26 02:30:26;;;;;;;1.10;1.00;;;22.90;44.50;;;;;;5008825;28;20679;-42
2023/10/26 02:32:52;;;;;;;0.98;0.90;;;22.90;44.50;;;;;;5007443;28;20652;-41
2023/10/26 02:35:20;;;;;;;1.70;0.90;;;22.90;44.50;;;;;;5010276;28;20569;-42
2023/10/26 02:37:47;;;;;;;1.20;1.10;;;22.90;44.50;;;;;;5010741;28;20665;-42
2023/10/26 02:40:13;;;;;;;1.00;1.00;;;22.90;44.50;;;;;;5005059;28;20686;-41
2023/10/26 02:42:39;;;;;;;1.27;1.17;;;22.90;44.50;;;;;;5011359;28;20584;-41
2023/10/26 02:45:06;;;;;;;1.10;0.98;;;22.90;44.50;;;;;;5011469;28;20207;-41
2023/10/26 02:47:33;;;;;;;0.95;0.95;;;22.80;44.40;;;;;;5009995;28;20328;-41
2023/10/26 02:49:59;;;;;;;1.08;0.90;;;22.90;44.50;;;;;;5008018;28;20624;-41
2023/10/26 02:52:25;;;;;;;0.93;0.90;;;22.90;44.40;;;;;;5010262;28;20660;-41
2023/10/26 02:54:52;;;;;;;0.80;0.80;;;22.90;44.50;;;;;;5011024;28;20715;-42
2023/10/26 02:57:18;;;;;;;0.90;0.90;;;22.90;44.50;;;;;;5008849;28;20214;-41
2023/10/26 02:59:45;;;;;;;1.02;0.93;;;22.80;44.40;;;;;;5009460;28;20771;-41
2023/10/26 03:02:11;;;;;;;1.27;1.10;;;22.80;44.40;;;;;;5009530;28;20672;-41
2023/10/26 03:04:38;;;;;;;1.08;0.95;;;22.90;44.50;;;;;;5012068;28;20227;-41
2023/10/26 03:07:04;;;;;;;1.17;0.98;;;22.80;44.40;;;;;;5007569;28;20411;-42
2023/10/26 03:09:31;;;;;;;1.20;1.10;;;22.80;44.40;;;;;;5007356;28;20300;-41
2023/10/26 03:11:57;;;;;;;1.58;0.90;;;22.90;44.40;;;;;;5008124;28;20286;-41
2023/10/26 03:14:24;;;;;;;1.15;0.90;;;22.90;44.40;;;;;;5004314;28;20646;-41
2023/10/26 03:16:50;;;;;;;1.20;1.00;;;22.80;44.40;;;;;;5012053;28;20316;-41
2023/10/26 03:19:17;;;;;;;0.95;0.90;;;22.90;44.50;;;;;;5010610;28;20290;-41
2023/10/26 03:21:43;;;;;;;1.25;1.15;;;22.90;44.40;;;;;;5010059;28;20290;-42
2023/10/26 03:24:10;;;;;;;1.10;1.00;;;22.90;44.40;;;;;;5010287;28;20310;-41
2023/10/26 03:26:37;;;;;;;1.13;1.02;;;22.90;44.50;;;;;;5010685;28;20216;-41
2023/10/26 03:29:03;;;;;;;1.83;0.90;;;22.90;44.40;;;;;;5009731;28;20232;-41
2023/10/26 03:31:31;;;;;;;1.48;1.10;;;22.90;44.40;;;;;;5006684;28;20211;-41
2023/10/26 03:33:57;;;;;;;1.10;1.00;;;22.90;44.50;;;;;;5009148;28;20257;-41
2023/10/26 03:36:24;;;;;;;1.23;1.10;;;22.90;44.40;;;;;;4999057;28;20211;-41
2023/10/26 03:38:50;;;;;;;1.23;1.13;;;22.90;44.40;;;;;;5009868;28;20213;-41
2023/10/26 03:41:18;;;;;;;1.40;1.17;;;22.90;44.40;;;;;;5008729;28;20213;-41
2023/10/26 03:43:45;;;;;;;1.23;1.13;;;22.90;44.50;;;;;;5009448;28;20242;-41
2023/10/26 03:46:11;;;;;;;1.38;1.20;;;22.90;44.50;;;;;;5008340;28;20624;-41
2023/10/26 03:48:38;;;;;;;1.58;1.23;;;22.90;44.40;;;;;;5006199;28;20249;-41
2023/10/26 03:51:04;;;;;;;0.90;0.90;;;22.90;45.10;;;;;;5010642;28;20203;-41
2023/10/26 03:53:31;;;;;;;1.02;1.02;;;22.90;44.40;;;;;;5010604;28;20227;-41
2023/10/26 03:55:57;;;;;;;0.98;0.85;;;22.90;44.50;;;;;;5007481;28;20205;-41
2023/10/26 03:58:23;;;;;;;1.98;0.98;;;22.90;44.40;;;;;;5006965;28;20660;-42
2023/10/26 04:00:51;;;;;;;2.05;1.30;;;22.90;44.40;;;;;;5008261;28;20664;-41
2023/10/26 04:03:17;;;;;;;1.20;1.10;;;22.90;44.40;;;;;;5009994;28;20223;-41
2023/10/26 04:05:44;;;;;;;1.00;0.80;;;22.80;44.40;;;;;;5005559;28;20199;-41
2023/10/26 04:08:12;;;;;;;1.40;1.10;;;22.90;44.40;;;;;;5010131;28;20227;-41
2023/10/26 04:10:38;;;;;;;0.95;0.88;;;22.90;44.40;;;;;;5010537;28;20207;-41
2023/10/26 04:13:05;;;;;;;1.30;0.90;;;22.90;44.40;;;;;;5010738;28;20229;-41
2023/10/26 04:15:31;;;;;;;1.25;1.15;;;22.90;44.40;;;;;;5004599;28;20207;-42
2023/10/26 04:17:57;;;;;;;0.93;0.90;;;22.90;44.40;;;;;;5009295;28;20213;-41
2023/10/26 04:20:24;;;;;;;1.27;1.05;;;22.90;44.40;;;;;;5010468;28;20209;-41
2023/10/26 04:22:50;;;;;;;0.80;0.80;;;22.90;45.10;;;;;;5004192;28;20222;-41
2023/10/26 04:25:17;;;;;;;1.20;1.00;;;22.90;44.40;;;;;;5012514;28;20207;-41
2023/10/26 04:27:44;;;;;;;1.42;0.95;;;22.90;44.40;;;;;;5013716;28;20231;-43
2023/10/26 04:30:10;;;;;;;1.52;0.98;;;22.80;44.50;;;;;;5012049;28;20195;-40
2023/10/26 04:32:37;;;;;;;1.08;0.98;;;22.80;44.60;;;;;;5012698;28;20227;-40
2023/10/26 04:35:03;;;;;;;1.05;0.77;;;22.80;44.60;;;;;;5011896;28;20298;-41
2023/10/26 04:37:30;;;;;;;1.00;1.00;;;22.80;44.60;;;;;;5011996;28;20306;-40
2023/10/26 04:39:56;;;;;;;1.88;1.15;;;22.80;44.60;;;;;;5009345;28;20310;-41
2023/10/26 04:42:23;;;;;;;0.90;0.90;;;22.90;44.70;;;;;;5013614;28;20207;-40
2023/10/26 04:44:49;;;;;;;3.88;1.00;;;22.80;44.70;;;;;;5009764;28;20203;-41
2023/10/26 04:47:16;;;;;;;0.93;0.93;;;22.80;44.70;;;;;;5010465;28;20296;-40
2023/10/26 04:49:42;;;;;;;1.98;1.00;;;22.80;44.70;;;;;;5012123;28;20211;-41
2023/10/26 04:52:14;;;;;;;0.90;0.90;;;22.80;44.70;;;;;;5008715;28;20202;-41
2023/10/26 04:54:40;;;;;;;1.48;0.95;;;22.90;44.80;;;;;;5013364;28;20502;-40
2023/10/26 04:57:07;;;;;;;1.27;1.15;;;22.80;44.70;;;;;;5009413;28;20203;-39
2023/10/26 04:59:34;;;;;;;1.67;1.02;;;22.90;44.70;;;;;;5012477;28;20211;-40
2023/10/26 05:02:00;;;;;;;1.15;1.00;;;22.80;44.70;;;;;;5011600;28;20625;-40
2023/10/26 05:04:27;;;;;;;1.58;1.20;;;22.80;44.70;;;;;;5014198;28;20547;-41
2023/10/26 05:06:53;;;;;;;1.10;1.00;;;22.80;44.70;;;;;;5012283;28;20221;-40
2023/10/26 05:09:20;;;;;;;1.40;1.00;;;22.90;44.80;;;;;;5009881;28;20231;-40
2023/10/26 05:11:46;;;;;;;1.23;1.13;;;22.80;44.70;;;;;;5010648;28;20199;-40
2023/10/26 05:14:12;;;;;;;1.20;1.10;;;22.80;44.70;;;;;;5013469;28;20226;-39
2023/10/26 05:16:39;;;;;;;2.05;1.10;;;22.80;44.70;;;;;;5011928;28;20207;-40
2023/10/26 05:19:05;;;;;;;0.73;0.73;;;22.90;44.80;;;;;;5012440;28;20210;-41
2023/10/26 05:21:32;;;;;;;1.95;0.90;;;22.90;44.80;;;;;;5011950;28;20210;-41
2023/10/26 05:23:58;;;;;;;1.10;1.00;;;22.80;44.70;;;;;;5013075;28;20233;-40
2023/10/26 05:26:25;;;;;;;1.13;0.82;;;22.80;45.40;;;;;;5010965;28;20201;-40
2023/10/26 05:28:51;;;;;;;2.58;0.90;;;22.90;44.80;;;;;;5011292;28;20237;-40
2023/10/26 05:31:18;;;;;;;1.25;0.90;;;22.80;44.70;;;;;;5009525;28;20218;-41
2023/10/26 05:33:44;;;;;;;1.75;1.02;;;22.80;44.70;;;;;;5004387;28;20239;-41
2023/10/26 05:36:10;;;;;;;2.00;1.00;;;22.90;44.80;;;;;;5011341;28;20306;-39
2023/10/26 05:38:37;;;;;;;1.20;1.10;;;22.80;44.70;;;;;;5009416;28;20543;-41
2023/10/26 05:41:03;;;;;;;2.58;0.90;;;22.80;44.80;;;;;;5005916;28;20555;-41
2023/10/26 05:43:30;;;;;;;2.33;1.00;;;22.80;44.90;;;;;;5009704;28;20222;-39
2023/10/26 05:45:56;;;;;;;2.88;1.20;;;22.80;44.90;;;;;;5009977;28;20286;-39
2023/10/26 05:48:24;;;;;;;2.33;1.10;;;22.80;44.90;;;;;;5006056;28;20231;-41
2023/10/26 05:50:50;;;;;;;7.18;1.98;;;22.70;44.90;;;;;;5008958;28;20199;-41
2023/10/26 05:53:17;;;;;;;9.57;2.00;;;22.80;46.00;;;;;;5006987;28;20227;-40
2023/10/26 05:55:43;;;;;;;4.95;1.83;;;22.80;45.90;;;;;;5009261;28;20212;-41
2023/10/26 05:58:10;;;;;;;5.43;2.05;;;22.80;46.80;;;;;;5008454;28;20732;-39
2023/10/26 06:00:37;;;;;;;6.13;1.50;;;22.70;47.00;;;;;;5013013;28;20582;-40
2023/10/26 06:03:04;;;;;;;5.38;2.10;;;22.70;47.10;;;;;;5007130;28;20226;-41
2023/10/26 06:05:30;;;;;;;2.85;1.50;;;22.60;47.20;;;;;;5008484;28;20206;-41
2023/10/26 06:07:57;;;;;;;4.80;1.50;;;22.60;47.30;;;;;;5012985;28;20691;-39
2023/10/26 06:10:23;;;;;;;2.47;1.60;;;22.60;47.20;;;;;;5011252;28;20583;-40
2023/10/26 06:12:50;;;;;;;3.50;1.38;;;22.60;47.60;;;;;;5010246;28;20252;-42
2023/10/26 06:15:16;;;;;;;3.78;1.30;;;22.50;43.20;;;;;;5010187;28;20298;-42
2023/10/26 06:17:43;;;;;;;2.33;1.13;;;21.40;44.00;;;;;;5008451;28;20658;-42
2023/10/26 06:20:09;;;;;;;2.13;1.20;;;21.30;44.20;;;;;;5008601;28;20210;-42
2023/10/26 06:22:36;;;;;;;1.88;1.30;;;21.70;44.20;;;;;;5011579;28;20227;-42
2023/10/26 06:25:05;;;;;;;1.67;1.02;;;21.90;44.70;;;;;;5007739;28;22081;-43
2023/10/26 06:27:31;;;;;;;3.72;1.33;;;22.10;45.30;;;;;;5010069;28;20203;-42
2023/10/26 06:29:58;;;;;;;4.13;1.70;;;22.20;45.50;;;;;;5004262;28;20226;-42
2023/10/26 06:32:24;;;;;;;3.78;1.65;;;22.20;45.50;;;;;;5010302;28;20230;-42
2023/10/26 06:34:52;;;;;;;2.80;1.13;;;22.30;45.30;;;;;;5014866;28;20202;-42
2023/10/26 06:37:18;;;;;;;2.08;1.30;;;22.40;45.30;;;;;;5008007;28;20375;-42
2023/10/26 06:39:44;;;;;;;4.18;1.20;;;22.40;45.40;;;;;;5013440;28;20219;-42
2023/10/26 06:42:12;;;;;;;4.30;1.40;;;22.40;45.50;;;;;;4999504;28;20759;-52
2023/10/26 06:44:40;;;;;;;2.53;1.17;;;22.40;45.80;;;;;;5005352;28;20207;-45
2023/10/26 06:47:06;;;;;;;2.38;1.35;;;22.50;45.90;;;;;;5006843;28;20351;-46
2023/10/26 06:49:32;;;;;;;2.45;0.98;;;22.50;45.70;;;;;;5006643;28;20348;-43
2023/10/26 06:51:59;;;;;;;2.08;1.38;;;22.60;45.30;;;;;;5010350;28;20237;-46
2023/10/26 06:54:25;;;;;;;2.38;1.23;;;22.60;45.20;;;;;;5008033;28;20674;-38
2023/10/26 06:56:52;;;;;;;2.17;1.05;;;22.60;45.80;;;;;;5010160;28;20683;-46
2023/10/26 06:59:18;;;;;;;2.20;1.20;;;22.60;45.80;;;;;;5007130;28;20207;-45
2023/10/26 07:01:45;;;;;;;2.13;1.10;;;22.60;45.20;;;;;;5003511;28;20230;-41
2023/10/26 07:04:11;;;;;;;1.27;1.05;;;22.60;45.20;;;;;;5009624;28;20294;-42
2023/10/26 07:06:37;;;;;;;1.63;1.00;;;22.60;45.10;;;;;;5003802;28;20208;-49
2023/10/26 07:09:04;;;;;;;1.95;1.10;;;22.60;45.50;;;;;;5009134;28;20332;-39
2023/10/26 07:11:31;;;;;;;1.10;0.90;;;22.60;45.70;;;;;;5004558;28;20685;-38
2023/10/26 07:13:58;;;;;;;1.40;0.80;;;22.60;45.90;;;;;;5010566;28;20211;-42
2023/10/26 07:16:24;;;;;;;3.83;1.00;;;22.70;45.80;;;;;;5009513;28;20207;-40
2023/10/26 07:18:51;;;;;;;2.17;1.20;;;22.60;46.40;;;;;;5010102;28;20667;-37
2023/10/26 07:21:17;;;;;;;1.05;1.00;;;22.80;46.00;;;;;;5005756;28;20670;-34
2023/10/26 07:23:43;;;;;;;1.50;1.10;;;22.80;46.60;;;;;;5004220;28;20199;-38
2023/10/26 07:26:10;;;;;;;1.80;1.10;;;22.90;46.70;;;;;;5007354;28;20195;-39
2023/10/26 07:28:36;;;;;;;1.33;0.98;;;22.90;46.70;;;;;;5009118;28;20219;-39
2023/10/26 07:31:03;;;;;;;2.03;1.27;;;22.90;46.70;;;;;;5010795;28;20223;-38
2023/10/26 07:33:29;;;;;;;2.05;1.10;;;22.90;46.70;;;;;;5007053;28;20286;-41
2023/10/26 07:35:56;;;;;;;2.33;1.10;;;22.90;46.70;;;;;;5009570;28;20207;-46
2023/10/26 07:38:24;;;;;;;2.25;1.40;;;22.90;46.80;;;;;;5008251;28;20293;-48
2023/10/26 07:40:50;;;;;;;1.20;1.00;;;22.90;47.00;;;;;;5010149;28;20593;-49
2023/10/26 07:43:17;;;;;;;2.38;1.02;;;22.90;47.20;;;;;;5013640;28;20230;-52
2023/10/26 07:45:43;;;;;;;2.60;1.10;;;22.90;47.70;;;;;;5017022;28;20207;-41
2023/10/26 07:48:10;;;;;;;2.17;1.05;;;22.90;47.10;;;;;;5006702;28;20239;-44
2023/10/26 07:50:36;;;;;;;1.17;1.00;;;23.00;47.30;;;;;;5009322;28;20319;-41
2023/10/26 07:53:03;;;;;;;1.42;1.13;;;23.00;47.10;;;;;;5009640;28;20381;-40
2023/10/26 07:55:29;;;;;;;1.92;1.05;;;22.90;47.60;;;;;;5006107;28;20265;-43
2023/10/26 07:57:56;;;;;;;2.00;1.10;;;23.00;47.60;;;;;;5010119;28;20956;-40
2023/10/26 08:00:22;;;;;;;1.85;1.00;;;23.00;46.90;;;;;;5010637;28;20223;-49
2023/10/26 08:02:49;;;;;;;2.75;1.30;;;23.00;46.80;;;;;;5001923;28;20294;-43
2023/10/26 08:05:16;;;;;;;2.15;1.02;;;23.10;46.90;;;;;;4993342;28;20210;-37
2023/10/26 08:07:44;;;;;;;2.35;1.10;;;23.00;46.80;;;;;;5010772;28;20199;-43
2023/10/26 08:10:11;;;;;;;1.92;1.30;;;23.10;46.90;;;;;;5011944;28;20618;-41
2023/10/26 08:12:37;;;;;;;1.15;0.90;;;23.00;46.80;;;;;;5013002;28;20235;-44
2023/10/26 08:15:04;;;;;;;2.05;0.98;;;23.00;46.90;;;;;;5010841;28;20213;-41
2023/10/26 08:17:30;;;;;;;1.80;1.20;;;23.10;47.10;;;;;;5012402;28;20199;-42
2023/10/26 08:19:58;;;;;;;1.13;1.00;;;23.00;46.50;;;;;;5011054;28;20211;-43
2023/10/26 08:22:25;;;;;;;1.95;0.98;;;23.00;46.70;;;;;;5010797;28;20230;-44
2023/10/26 08:24:51;;;;;;;1.10;1.00;;;23.00;46.80;;;;;;5011771;28;20210;-39
2023/10/26 08:27:18;;;;;;;1.42;1.00;;;23.00;46.80;;;;;;5021146;28;20213;-40
2023/10/26 08:29:45;;;;;;;1.27;1.17;;;22.90;44.50;;;;;;5013871;28;20284;-42
2023/10/26 08:32:11;;;;;;;1.05;0.80;;;22.50;43.60;;;;;;5009217;28;20214;-45
2023/10/26 08:34:38;;;;;;;1.23;0.90;;;22.60;44.10;;;;;;5010025;28;20205;-41
2023/10/26 08:37:05;;;;;;;1.30;0.95;;;22.60;44.00;;;;;;5009866;28;20679;-41
2023/10/26 08:39:31;;;;;;;3.25;1.20;;;22.50;44.20;;;;;;5011872;28;20705;-47
2023/10/26 08:41:59;;;;;;;1.67;0.90;;;22.60;44.30;;;;;;5012473;28;20214;-44
2023/10/26 08:44:26;;;;;;;2.33;1.13;;;22.60;43.60;;;;;;5010408;28;20574;-45
2023/10/26 08:46:52;;;;;;;1.20;1.00;;;22.50;44.20;;;;;;5013038;28;20203;-46
2023/10/26 08:49:19;;;;;;;1.33;1.10;;;22.50;43.60;;;;;;5011691;28;20241;-52
2023/10/26 08:51:45;;;;;;;2.58;1.13;;;22.50;43.30;;;;;;5010419;28;20229;-42
2023/10/26 08:54:12;;;;;;;1.52;0.93;;;22.50;43.40;;;;;;5006210;28;20290;-53
2023/10/26 08:56:38;;;;;;;1.75;0.98;;;22.50;43.50;;;;;;5011761;28;20199;-54
2023/10/26 08:59:05;;;;;;;1.77;1.20;;;22.50;43.50;;;;;;5012632;28;20215;-48
2023/10/26 09:01:31;;;;;;;0.95;0.80;;;22.60;43.80;;;;;;5008943;28;20215;-47
2023/10/26 09:03:57;;;;;;;1.00;0.90;;;22.60;43.90;;;;;;5010854;28;20664;-45
2023/10/26 09:06:24;;;;;;;1.23;0.80;;;22.60;43.90;;;;;;5012276;28;21707;-44
2023/10/26 09:08:50;;;;;;;0.90;0.85;;;22.60;43.90;;;;;;5007916;28;20714;-45
2023/10/26 09:11:17;;;;;;;1.10;0.85;;;22.60;44.00;;;;;;5010280;28;20677;-45
2023/10/26 09:13:43;;;;;;;2.17;1.02;;;22.60;43.90;;;;;;5012404;28;20639;-45
2023/10/26 09:16:10;;;;;;;1.85;1.55;;;22.50;43.80;;;;;;5008876;28;20280;-43
2023/10/26 09:18:37;;;;;;;1.13;0.90;;;22.50;43.80;;;;;;5009725;28;20214;-43
2023/10/26 09:21:03;;;;;;;1.30;1.00;;;22.60;44.10;;;;;;5006412;28;20225;-42
2023/10/26 09:23:30;;;;;;;2.10;1.20;;;22.50;43.90;;;;;;5007505;28;20587;-42
2023/10/26 09:25:56;;;;;;;1.77;0.93;;;22.60;43.90;;;;;;5001979;28;20302;-42
2023/10/26 09:28:23;;;;;;;0.80;0.80;;;22.60;43.80;;;;;;5011186;28;20293;-41
2023/10/26 09:30:49;;;;;;;3.30;1.10;;;22.50;43.90;;;;;;5011177;28;20334;-44
2023/10/26 09:33:16;;;;;;;1.10;1.00;;;22.50;43.70;;;;;;5008149;28;20207;-43
2023/10/26 09:35:42;;;;;;;1.65;0.95;;;22.50;43.70;;;;;;5005303;28;20203;-40
2023/10/26 09:38:09;;;;;;;1.08;0.73;;;22.50;44.00;;;;;;5006031;28;20231;-42
2023/10/26 09:40:35;;;;;;;1.40;0.88;;;22.50;43.90;;;;;;5008774;28;20563;-39
2023/10/26 09:43:01;;;;;;;1.52;0.75;;;22.50;43.90;;;;;;5011954;28;20310;-41
2023/10/26 09:45:28;;;;;;;1.70;0.80;;;22.50;44.00;;;;;;5010643;28;20211;-43
2023/10/26 09:47:54;;;;;;;1.10;1.00;;;22.50;43.90;;;;;;5008902;28;20209;-40
2023/10/26 09:50:21;;;;;;;1.55;0.90;;;22.50;43.90;;;;;;5012510;28;20624;-40
2023/10/26 09:52:47;;;;;;;0.80;0.80;;;22.50;43.90;;;;;;5011787;28;20203;-40
2023/10/26 09:55:14;;;;;;;0.90;0.90;;;22.50;43.90;;;;;;5013336;28;20668;-38
2023/10/26 09:57:40;;;;;;;1.10;0.90;;;22.50;43.90;;;;;;5008295;28;20282;-45
2023/10/26 10:00:07;;;;;;;0.85;0.85;;;22.50;43.90;;;;;;5013505;28;20223;-38
2023/10/26 10:02:33;;;;;;;1.00;0.90;;;22.50;43.90;;;;;;5005526;28;20207;-37
2023/10/26 10:05:00;;;;;;;1.10;1.00;;;22.50;44.00;;;;;;5008133;28;20398;-37
2023/10/26 10:07:26;;;;;;;0.80;0.80;;;22.50;44.00;;;;;;5011408;28;20247;-37
2023/10/26 10:09:53;;;;;;;0.73;0.73;;;22.50;43.90;;;;;;5011896;28;20235;-38
2023/10/26 10:12:18;;;;;;;1.13;0.80;;;22.50;43.90;;;;;;5008369;28;20217;-39
2023/10/26 10:14:44;;;;;;;1.90;0.90;;;22.50;44.00;;;;;;5017284;28;20207;-37
2023/10/26 10:17:11;;;;;;;0.82;0.82;;;22.50;44.00;;;;;;5007869;28;20621;-39
2023/10/26 10:19:40;;;;;;;1.70;0.80;;;22.50;44.00;;;;;;5007486;28;20310;-40
2023/10/26 10:22:06;;;;;;;0.85;0.85;;;22.50;43.90;;;;;;5011690;28;20202;-48
2023/10/26 10:24:33;;;;;;;1.08;0.98;;;22.50;44.00;;;;;;5009975;28;20209;-48
2023/10/26 10:26:59;;;;;;;0.73;0.70;;;22.50;44.00;;;;;;5007701;28;20199;-48
2023/10/26 10:29:26;;;;;;;0.90;0.90;;;22.50;44.00;;;;;;5008255;28;20235;-48
2023/10/26 10:31:52;;;;;;;1.95;0.80;;;22.50;43.90;;;;;;5000591;28;20370;-44
2023/10/26 10:34:19;;;;;;;1.65;0.85;;;22.50;43.90;;;;;;5009751;28;20293;-44
2023/10/26 10:36:44;;;;;;;1.00;1.00;;;22.50;43.90;;;;;;5007702;28;20226;-43
2023/10/26 10:39:11;;;;;;;1.65;0.80;;;22.50;43.90;;;;;;5010073;28;20298;-53
2023/10/26 10:41:37;;;;;;;1.02;0.80;;;22.50;43.90;;;;;;5011123;28;20211;-36
2023/10/26 10:44:03;;;;;;;2.05;0.90;;;22.60;43.90;;;;;;5002577;28;20203;-50
2023/10/26 10:46:30;;;;;;;1.17;1.02;;;22.60;43.60;;;;;;5009737;28;20302;-52
2023/10/26 10:48:55;;;;;;;1.27;0.90;;;22.60;43.90;;;;;;5008914;28;20203;-49
2023/10/26 10:51:22;;;;;;;1.42;1.00;;;22.60;43.70;;;;;;5011477;28;20227;-50
2023/10/26 10:53:48;;;;;;;1.42;0.70;;;22.60;43.90;;;;;;5011319;28;20290;-42
2023/10/26 10:56:15;;;;;;;0.73;0.73;;;22.50;43.80;;;;;;5006933;28;20218;-44
2023/10/26 10:58:41;;;;;;;1.83;0.80;;;22.50;43.90;;;;;;5008681;28;20208;-46
2023/10/26 11:01:08;;;;;;;2.10;1.10;;;22.50;44.00;;;;;;5009017;28;20807;-50
2023/10/26 11:03:34;;;;;;;0.80;0.77;;;22.60;44.10;;;;;;5010342;28;20677;-46
2023/10/26 11:06:00;;;;;;;0.88;0.80;;;22.70;44.10;;;;;;5008518;28;20281;-48
2023/10/26 11:08:27;;;;;;;1.35;0.90;;;22.80;44.00;;;;;;5005942;28;20212;-45
2023/10/26 11:10:54;;;;;;;0.80;0.80;;;22.80;43.90;;;;;;5009150;28;20235;-46
2023/10/26 11:13:20;;;;;;;0.73;0.73;;;22.80;43.90;;;;;;5005596;28;20211;-45
2023/10/26 11:15:47;;;;;;;0.90;0.90;;;22.80;43.90;;;;;;5008881;28;20302;-46
2023/10/26 11:18:13;;;;;;;1.08;0.85;;;22.80;43.90;;;;;;5010292;28;20302;-49
2023/10/26 11:20:39;;;;;;;1.05;0.80;;;22.80;43.80;;;;;;5007786;28;20310;-45
2023/10/26 11:23:06;;;;;;;1.08;0.90;;;22.90;43.90;;;;;;5009938;28;20195;-45
2023/10/26 11:25:32;;;;;;;1.63;1.23;;;22.90;43.90;;;;;;5004125;28;20784;-46
2023/10/26 11:27:59;;;;;;;5.25;1.98;;;22.90;43.90;;;;;;5002258;28;20576;-45
2023/10/26 11:30:25;;;;;;;4.43;2.63;;;22.90;43.90;;;;;;5007189;28;20283;-45
2023/10/26 11:32:54;;;;;;;3.13;2.00;;;22.90;43.90;;;;;;5011106;28;20203;-45
2023/10/26 11:35:21;;;;;;;2.97;1.88;;;22.90;43.90;;;;;;5013723;28;20199;-45
2023/10/26 11:37:48;;;;;;;3.40;2.33;;;22.90;43.90;;;;;;5007136;28;20221;-46
2023/10/26 11:40:14;;;;;;;4.07;2.25;;;22.90;43.90;;;;;;5011971;28;20230;-48
2023/10/26 11:42:41;;;;;;;2.95;2.58;;;22.90;43.90;;;;;;5014517;28;20703;-48
2023/10/26 11:45:07;;;;;;;3.88;2.40;;;22.90;43.90;;;;;;5008807;28;20660;-46
2023/10/26 11:47:34;;;;;;;3.00;2.35;;;22.90;43.90;;;;;;5011544;28;20532;-46
2023/10/26 11:50:00;;;;;;;2.35;2.10;;;22.90;43.90;;;;;;5008727;28;20245;-47
2023/10/26 11:52:27;;;;;;;3.22;2.30;;;22.90;43.90;;;;;;5011622;28;20345;-46
2023/10/26 11:54:55;;;;;;;5.00;2.40;;;22.90;44.00;;;;;;5013524;28;20297;-48
2023/10/26 11:57:22;;;;;;;3.60;2.42;;;22.90;44.00;;;;;;5012622;28;20207;-48
2023/10/26 11:59:48;;;;;;;5.15;2.15;;;22.90;44.00;;;;;;5014027;28;20226;-47
2023/10/26 12:02:15;;;;;;;5.78;2.15;;;22.90;44.00;;;;;;5008643;28;20727;-48
2023/10/26 12:04:41;;;;;;;2.90;2.08;;;22.90;44.00;;;;;;5011069;28;20246;-46
2023/10/26 12:07:07;;;;;;;5.32;2.60;;;22.90;44.00;;;;;;5003059;28;20211;-45
2023/10/26 12:09:34;;;;;;;4.63;2.42;;;22.90;44.00;;;;;;5010257;28;20238;-46
2023/10/26 12:12:00;;;;;;;4.32;2.10;;;22.90;44.00;;;;;;5010894;28;20207;-40
2023/10/26 12:14:27;;;;;;;4.82;2.38;;;22.90;44.00;;;;;;5007398;28;20200;-41
2023/10/26 12:16:53;;;;;;;3.75;2.40;;;22.80;43.60;;;;;;5010881;28;20199;-40
2023/10/26 12:19:20;;;;;;;5.30;3.17;;;22.70;43.40;;;;;;5010743;28;20255;-42
2023/10/26 12:21:46;;;;;;;8.73;4.32;;;22.70;43.70;;;;;;5011706;28;20221;-42
2023/10/26 12:24:11;;;;;;;8.98;4.40;;;22.70;43.80;;;;;;5014204;28;20213;-42
2023/10/26 12:26:38;;;;;;;7.68;4.88;;;22.70;44.00;;;;;;5013379;28;20293;-42
2023/10/26 12:29:04;;;;;;;7.78;5.47;;;22.70;44.20;;;;;;5013081;28;20223;-42
2023/10/26 12:31:31;;;;;;;7.07;4.53;;;22.70;44.30;;;;;;5012120;28;20230;-41
2023/10/26 12:33:57;;;;;;;11.27;5.05;;;22.70;44.40;;;;;;5011867;28;20207;-42
2023/10/26 12:36:24;;;;;;;9.40;5.78;;;22.70;44.40;;;;;;5009407;28;20213;-42
2023/10/26 12:38:50;;;;;;;11.82;5.57;;;22.70;44.50;;;;;;5009048;28;20217;-42
2023/10/26 12:41:17;;;;;;;10.50;5.53;;;22.70;44.50;;;;;;5012892;28;20207;-42